Portada
METAR-TAF:

METAR-TAF

Aeroports :

Cooma, Austràlia

latitud: 36-18-00S, longitud: 148-58-24E, altitud: 947 m

Observació

L'informe es va fer fa 55 minuts, a les 10:00 UTC
Vent 4 kt del Nord-Oest, variant entre Oest i Nord/Nord-Oest
Temperatura 5°C
Humitat 56%
Pressió 1011 hPa
Visibilitat 10 km o més

METAR: YCOM 161000Z AUTO 31004KT 270V340 9999 // NCD 05/M03 Q1011

Hora: 20:55 (10:55 UTC)


TAF: manca

Observacions i pronòstics meteorològics de més de 4000 aeroports (METAR i TAF).

Les estacions disponibles són els punts grocs i vermells al mapa.

Posi el ratolí al punt desitjat per veure el nom de l'estació.

Feu clic per veure les observacions i els pronòstics meteorològics.

Per canviar el mapa: feu clic els botons verds amb una creu de color negre per apropar; al botó verd amb un guió per allunyar la imatge; o en les fletxes verdes per a mapes adjacents.


METAR-TAF: